createdAt,value
2024-03-07T00:00:32.208Z,29.41
2024-03-07T00:01:32.320Z,29.36
2024-03-07T00:02:32.442Z,29.24
2024-03-07T00:03:32.507Z,28.91
2024-03-07T00:04:32.571Z,28.90
2024-03-07T00:05:32.656Z,29.22
2024-03-07T00:06:32.688Z,29.23
2024-03-07T00:07:32.801Z,28.77
2024-03-07T00:08:32.930Z,29.28
2024-03-07T00:09:32.954Z,29.19
2024-03-07T00:10:32.985Z,28.99
2024-03-07T00:11:33.194Z,28.59
2024-03-07T00:12:33.205Z,28.20
2024-03-07T00:13:33.284Z,28.46
2024-03-07T00:14:33.393Z,28.96
2024-03-07T00:15:33.427Z,28.63
2024-03-07T00:16:33.510Z,28.43
2024-03-07T00:17:33.610Z,28.58
2024-03-07T00:18:33.711Z,28.95
2024-03-07T00:19:33.731Z,28.78
2024-03-07T00:20:33.896Z,28.72
2024-03-07T00:21:33.894Z,28.81
2024-03-07T00:22:34.011Z,29.22
2024-03-07T00:23:34.146Z,28.99
2024-03-07T00:24:34.177Z,29.20
2024-03-07T00:25:34.248Z,29.19
2024-03-07T00:26:34.349Z,29.12
2024-03-07T00:27:34.433Z,29.27
2024-03-07T00:28:34.511Z,29.27
2024-03-07T00:29:34.612Z,29.32
2024-03-07T00:30:34.652Z,29.35
2024-03-07T00:31:34.782Z,29.33
2024-03-07T00:32:34.921Z,29.34
2024-03-07T00:33:51.164Z,29.36
2024-03-07T00:34:35.998Z,29.36
2024-03-07T00:35:35.008Z,29.37
2024-03-07T00:36:35.020Z,29.35
2024-03-07T00:37:35.008Z,29.34
2024-03-07T00:38:35.035Z,29.33
2024-03-07T00:39:34.988Z,29.35
2024-03-07T00:40:34.988Z,29.32
2024-03-07T00:41:35.045Z,29.32
2024-03-07T00:42:35.133Z,29.29
2024-03-07T00:43:35.183Z,29.29
2024-03-07T00:44:35.247Z,29.27
2024-03-07T00:45:35.363Z,29.27
2024-03-07T00:46:35.475Z,29.22
2024-03-07T00:47:35.675Z,29.24
2024-03-07T00:48:35.661Z,29.22
2024-03-07T00:49:35.767Z,29.23
2024-03-07T00:50:35.952Z,29.22
2024-03-07T00:52:36.077Z,29.17
2024-03-07T00:53:36.238Z,29.15
2024-03-07T00:54:36.270Z,29.14
2024-03-07T00:55:36.374Z,29.14
2024-03-07T00:56:36.499Z,29.11
2024-03-07T00:57:36.566Z,29.10
2024-03-07T00:58:36.661Z,29.11
2024-03-07T00:59:36.791Z,29.07
2024-03-07T01:00:36.867Z,29.06
2024-03-07T01:01:36.952Z,29.06
2024-03-07T01:02:37.063Z,29.05
2024-03-07T01:03:37.124Z,29.04
2024-03-07T01:04:37.215Z,29.05
2024-03-07T01:05:37.342Z,29.02
2024-03-07T01:06:37.398Z,29.02
2024-03-07T01:07:37.493Z,29.01
2024-03-07T01:08:37.614Z,29.01
2024-03-07T01:09:37.653Z,28.99
2024-03-07T01:10:37.757Z,28.98
2024-03-07T01:11:37.929Z,28.98
2024-03-07T01:12:37.883Z,28.99
2024-03-07T01:13:38.065Z,28.98
2024-03-07T01:14:38.106Z,28.97
2024-03-07T01:15:38.186Z,28.95
2024-03-07T01:16:38.244Z,28.95
2024-03-07T01:17:38.453Z,28.96
2024-03-07T01:18:38.496Z,28.93
2024-03-07T01:19:38.521Z,28.93
2024-03-07T01:20:38.663Z,28.90
2024-03-07T01:21:39.255Z,28.91
2024-03-07T01:22:38.737Z,28.89
2024-03-07T01:23:38.767Z,28.89
2024-03-07T01:24:38.756Z,28.88
2024-03-07T01:25:38.821Z,28.87
2024-03-07T01:26:38.871Z,28.87
2024-03-07T01:27:38.898Z,28.87
2024-03-07T01:28:38.970Z,28.86
2024-03-07T01:29:38.998Z,28.86
2024-03-07T01:30:38.972Z,28.86
2024-03-07T01:31:39.028Z,28.84
2024-03-07T01:32:39.134Z,28.83
2024-03-07T01:33:39.177Z,28.83
2024-03-07T01:34:39.162Z,28.83
2024-03-07T01:35:39.212Z,28.82
2024-03-07T01:36:39.320Z,28.81
2024-03-07T01:37:39.270Z,28.81
2024-03-07T01:38:39.372Z,28.81
2024-03-07T01:39:39.373Z,28.81
2024-03-07T01:40:39.392Z,28.78
2024-03-07T01:41:39.498Z,28.79
2024-03-07T01:42:39.520Z,28.77
2024-03-07T01:43:39.587Z,28.77
2024-03-07T01:44:40.565Z,28.77
2024-03-07T01:45:39.640Z,28.77
2024-03-07T01:46:39.725Z,28.75
2024-03-07T01:48:08.897Z,28.77
2024-03-07T01:49:08.830Z,28.75
2024-03-07T01:50:08.825Z,28.73
2024-03-07T01:51:08.824Z,28.74
2024-03-07T01:52:08.837Z,28.73
2024-03-07T01:53:08.806Z,28.72
2024-03-07T01:54:08.808Z,28.75
2024-03-07T01:55:08.802Z,28.73
2024-03-07T01:56:08.827Z,28.73
2024-03-07T01:57:08.819Z,28.75
2024-03-07T01:58:08.836Z,28.72
2024-03-07T01:59:08.954Z,28.73
2024-03-07T02:00:08.906Z,28.72
2024-03-07T02:01:08.835Z,28.72
2024-03-07T02:02:08.856Z,28.73
2024-03-07T02:03:08.826Z,28.73
2024-03-07T02:04:08.822Z,28.73
2024-03-07T02:05:08.858Z,28.70
2024-03-07T02:06:08.816Z,28.72
2024-03-07T02:07:08.834Z,28.72
2024-03-07T02:08:08.809Z,28.71
2024-03-07T02:09:08.807Z,28.72
2024-03-07T02:10:08.856Z,28.69
2024-03-07T02:11:08.853Z,28.69
2024-03-07T02:12:08.885Z,28.69
2024-03-07T02:13:08.831Z,28.72
2024-03-07T02:14:08.878Z,28.68
2024-03-07T02:15:08.825Z,28.69
2024-03-07T02:16:08.830Z,28.67
2024-03-07T02:17:08.848Z,28.68
2024-03-07T02:18:08.893Z,28.71
2024-03-07T02:19:08.845Z,28.70
2024-03-07T02:20:08.888Z,28.70
2024-03-07T02:21:08.871Z,28.71
2024-03-07T02:22:08.842Z,28.69
2024-03-07T02:23:08.865Z,28.71
2024-03-07T02:24:08.854Z,28.69
2024-03-07T02:25:08.856Z,28.69
2024-03-07T02:26:08.867Z,28.68
2024-03-07T02:27:08.884Z,28.69
2024-03-07T02:28:08.903Z,28.69
2024-03-07T02:29:08.972Z,28.71
2024-03-07T02:30:09.092Z,28.69
2024-03-07T02:31:09.179Z,28.68
2024-03-07T02:32:09.218Z,28.70
2024-03-07T02:33:09.504Z,28.70
2024-03-07T02:34:09.360Z,28.69
2024-03-07T02:35:09.467Z,28.70
2024-03-07T02:36:09.546Z,28.72
2024-03-07T02:37:09.662Z,28.71
2024-03-07T02:38:09.920Z,28.67
2024-03-07T02:39:09.808Z,28.70
2024-03-07T02:40:09.885Z,28.70
2024-03-07T02:41:09.923Z,28.72
2024-03-07T02:42:10.024Z,28.75
2024-03-07T02:43:10.118Z,28.74
2024-03-07T02:44:10.250Z,28.73
2024-03-07T02:45:10.273Z,28.69
2024-03-07T02:46:10.365Z,28.72
2024-03-07T02:47:10.496Z,28.73
2024-03-07T02:48:11.247Z,28.70
2024-03-07T02:49:10.739Z,28.73
2024-03-07T02:50:10.744Z,28.73
2024-03-07T02:51:10.761Z,28.75
2024-03-07T02:52:10.870Z,28.71
2024-03-07T02:53:10.985Z,28.73
2024-03-07T02:54:11.087Z,28.72
2024-03-07T02:55:11.131Z,28.69
2024-03-07T02:56:11.274Z,28.70
2024-03-07T02:57:11.329Z,28.73
2024-03-07T02:58:11.427Z,28.73
2024-03-07T02:59:11.484Z,28.76
2024-03-07T03:00:11.561Z,28.74
2024-03-07T03:01:11.724Z,28.69
2024-03-07T03:02:11.815Z,28.76
2024-03-07T03:03:11.855Z,28.73
2024-03-07T03:04:11.967Z,28.73
2024-03-07T03:05:12.086Z,28.72
2024-03-07T03:06:12.133Z,28.78
2024-03-07T03:07:12.205Z,28.76
2024-03-07T03:08:12.365Z,28.74
2024-03-07T03:09:12.399Z,28.74
2024-03-07T03:10:12.524Z,28.72
2024-03-07T03:11:12.634Z,28.73
2024-03-07T03:12:12.720Z,28.73
2024-03-07T03:13:12.765Z,28.77
2024-03-07T03:14:12.927Z,28.75
2024-03-07T03:15:12.944Z,28.74
2024-03-07T03:16:13.061Z,28.61
2024-03-07T03:17:13.141Z,28.74
2024-03-07T03:18:13.344Z,28.71
2024-03-07T03:19:13.353Z,28.69
2024-03-07T03:20:13.482Z,28.69
2024-03-07T03:21:13.532Z,28.63
2024-03-07T03:22:13.647Z,28.66
2024-03-07T03:23:20.016Z,28.69
2024-03-07T03:24:14.752Z,28.70
2024-03-07T03:25:13.768Z,28.74
2024-03-07T03:26:13.726Z,28.70
2024-03-07T03:27:13.762Z,28.60
2024-03-07T03:28:13.748Z,28.65
2024-03-07T03:29:13.824Z,28.67
2024-03-07T03:30:13.774Z,28.71
2024-03-07T03:31:13.787Z,28.67
2024-03-07T03:32:13.824Z,28.69
2024-03-07T03:33:13.843Z,28.70
2024-03-07T03:34:13.827Z,28.70
2024-03-07T03:35:13.914Z,28.64
2024-03-07T03:36:13.985Z,28.62
2024-03-07T03:37:14.069Z,28.72
2024-03-07T03:38:14.229Z,28.58
2024-03-07T03:39:14.537Z,28.63
2024-03-07T03:40:14.316Z,28.66
2024-03-07T03:41:14.367Z,28.63
2024-03-07T03:42:14.392Z,28.69
2024-03-07T03:43:14.446Z,28.70
2024-03-07T03:44:14.518Z,28.62
2024-03-07T03:45:15.509Z,28.57
2024-03-07T03:46:14.565Z,28.50
2024-03-07T03:47:14.623Z,28.44
2024-03-07T03:48:14.904Z,28.54
2024-03-07T03:49:14.687Z,28.47
2024-03-07T03:50:14.740Z,28.41
2024-03-07T03:51:14.752Z,28.50
2024-03-07T03:52:14.848Z,28.41
2024-03-07T03:53:14.961Z,28.39
2024-03-07T03:54:15.019Z,28.39
2024-03-07T03:55:15.122Z,28.36
2024-03-07T03:56:15.249Z,28.36
2024-03-07T03:57:15.330Z,28.53
2024-03-07T03:58:15.430Z,28.41
2024-03-07T03:59:15.644Z,28.46
2024-03-07T04:00:15.686Z,28.25
2024-03-07T04:01:16.016Z,28.27
2024-03-07T04:02:15.879Z,28.22
2024-03-07T04:03:15.957Z,28.33
2024-03-07T04:04:16.039Z,28.12
2024-03-07T04:05:16.160Z,28.24
2024-03-07T04:06:16.232Z,28.14
2024-03-07T04:07:16.310Z,28.04
2024-03-07T04:08:16.505Z,28.30
2024-03-07T04:09:16.514Z,28.18
2024-03-07T04:10:16.614Z,27.88
2024-03-07T04:11:16.769Z,28.18
2024-03-07T04:12:16.876Z,27.98
2024-03-07T04:13:16.895Z,27.91
2024-03-07T04:14:17.047Z,28.04
2024-03-07T04:15:17.092Z,27.77
2024-03-07T04:16:17.195Z,28.13
2024-03-07T04:17:17.346Z,27.98
2024-03-07T04:18:17.578Z,27.87
2024-03-07T04:19:17.534Z,27.85
2024-03-07T04:20:17.644Z,27.88
2024-03-07T04:21:17.735Z,27.78
2024-03-07T04:22:17.818Z,27.83
2024-03-07T04:23:17.952Z,27.71
2024-03-07T04:24:18.021Z,27.83
2024-03-07T04:25:18.148Z,27.95
2024-03-07T04:26:18.244Z,27.81
2024-03-07T04:27:18.346Z,27.69
2024-03-07T04:28:18.422Z,27.95
2024-03-07T04:29:18.562Z,27.66
2024-03-07T04:30:25.796Z,27.59
2024-03-07T04:31:33.509Z,27.70
2024-03-07T04:32:33.586Z,27.70
2024-03-07T04:33:33.678Z,27.76
2024-03-07T04:34:33.507Z,27.73
2024-03-07T04:35:33.529Z,27.82
2024-03-07T04:36:33.519Z,27.53
2024-03-07T04:37:33.532Z,27.75
2024-03-07T04:38:33.576Z,27.84
2024-03-07T04:39:33.563Z,27.68
2024-03-07T04:40:33.505Z,27.77
2024-03-07T04:41:33.617Z,27.87
2024-03-07T04:42:33.555Z,27.78
2024-03-07T04:43:33.542Z,28.20
2024-03-07T04:44:33.610Z,27.93
2024-03-07T04:45:33.557Z,28.31
2024-03-07T04:46:33.552Z,28.39
2024-03-07T04:47:33.674Z,28.25
2024-03-07T04:48:33.669Z,28.28
2024-03-07T04:49:33.556Z,28.38
2024-03-07T04:50:33.618Z,28.13
2024-03-07T04:51:33.556Z,28.33
2024-03-07T04:52:33.564Z,28.22
2024-03-07T04:53:33.586Z,28.34
2024-03-07T04:54:33.556Z,28.41
2024-03-07T04:55:33.543Z,28.41
2024-03-07T04:56:33.596Z,28.46
2024-03-07T04:57:33.544Z,28.41
2024-03-07T04:58:33.550Z,28.47
2024-03-07T04:59:33.634Z,28.47
2024-03-07T05:00:33.769Z,28.47
2024-03-07T05:01:33.827Z,28.53
2024-03-07T05:02:33.921Z,28.49
2024-03-07T05:03:34.031Z,28.41
2024-03-07T05:04:34.139Z,28.48
2024-03-07T05:05:34.320Z,28.47
2024-03-07T05:06:34.313Z,28.46
2024-03-07T05:07:34.423Z,28.46
2024-03-07T05:08:34.629Z,28.41
2024-03-07T05:09:34.607Z,28.43
2024-03-07T05:10:34.729Z,28.42
2024-03-07T05:11:34.873Z,28.42
2024-03-07T05:12:34.912Z,28.46
2024-03-07T05:13:35.047Z,28.42
2024-03-07T05:14:35.166Z,28.36
2024-03-07T05:15:37.087Z,28.40
2024-03-07T05:16:35.243Z,28.42
2024-03-07T05:17:35.289Z,28.36
2024-03-07T05:18:35.268Z,28.41
2024-03-07T05:19:35.250Z,28.46
2024-03-07T05:20:35.253Z,28.41
2024-03-07T05:21:35.254Z,28.36
2024-03-07T05:22:35.215Z,28.41
2024-03-07T05:23:35.313Z,28.36
2024-03-07T05:24:35.558Z,28.39
2024-03-07T05:25:35.262Z,28.44
2024-03-07T05:26:35.300Z,28.37
2024-03-07T05:27:35.240Z,28.37
2024-03-07T05:28:35.260Z,28.41
2024-03-07T05:29:35.304Z,28.34
2024-03-07T05:30:35.249Z,28.37
2024-03-07T05:31:35.272Z,28.30
2024-03-07T05:32:35.334Z,28.35
2024-03-07T05:33:35.282Z,28.38
2024-03-07T05:34:35.251Z,28.36
2024-03-07T05:35:35.321Z,28.38
2024-03-07T05:36:35.253Z,28.36
2024-03-07T05:37:35.291Z,28.33
2024-03-07T05:38:35.317Z,28.32
2024-03-07T05:39:35.283Z,28.34
2024-03-07T05:40:35.289Z,28.31
2024-03-07T05:41:35.310Z,28.36
2024-03-07T05:42:35.250Z,28.35
2024-03-07T05:43:35.259Z,28.31
2024-03-07T05:44:35.405Z,28.32
2024-03-07T05:45:35.284Z,28.35
2024-03-07T05:46:35.288Z,28.30
2024-03-07T05:47:35.342Z,28.33
2024-03-07T05:48:35.327Z,28.37
2024-03-07T05:49:35.312Z,28.33
2024-03-07T05:50:35.323Z,28.30
2024-03-07T05:51:35.288Z,28.31
2024-03-07T05:52:35.392Z,28.26
2024-03-07T05:53:35.560Z,28.26
2024-03-07T05:54:35.609Z,28.26
2024-03-07T05:55:35.700Z,28.28
2024-03-07T05:56:35.852Z,28.26
2024-03-07T05:57:35.853Z,28.23
2024-03-07T05:58:35.957Z,28.20
2024-03-07T05:59:36.118Z,28.27
2024-03-07T06:00:58.760Z,28.22
2024-03-07T06:01:36.160Z,28.33
2024-03-07T06:02:36.206Z,28.26
2024-03-07T06:03:36.204Z,28.26
2024-03-07T06:04:36.160Z,28.26
2024-03-07T06:05:36.248Z,28.24
2024-03-07T06:06:36.166Z,28.27
2024-03-07T06:07:36.130Z,28.21
2024-03-07T06:08:36.175Z,28.17
2024-03-07T06:09:36.180Z,28.19
2024-03-07T06:10:36.280Z,28.20
2024-03-07T06:11:36.329Z,28.23
2024-03-07T06:12:36.246Z,28.19
2024-03-07T06:13:36.185Z,28.19
2024-03-07T06:14:36.274Z,28.11
2024-03-07T06:15:36.149Z,28.02
2024-03-07T06:16:36.177Z,28.18
2024-03-07T06:17:36.219Z,28.18
2024-03-07T06:18:36.239Z,28.08
2024-03-07T06:19:36.185Z,28.10
2024-03-07T06:20:36.262Z,28.11
2024-03-07T06:21:36.201Z,28.05
2024-03-07T06:22:36.210Z,28.10
2024-03-07T06:23:36.390Z,28.05
2024-03-07T06:24:36.407Z,28.14
2024-03-07T06:25:36.459Z,28.13
2024-03-07T06:26:36.696Z,28.12
2024-03-07T06:27:36.684Z,28.09
2024-03-07T06:28:36.755Z,28.09
2024-03-07T06:29:36.901Z,28.13
2024-03-07T06:30:36.952Z,28.12
2024-03-07T06:31:37.040Z,28.03
2024-03-07T06:32:37.234Z,27.43
2024-03-07T06:33:37.333Z,27.88
2024-03-07T06:34:37.687Z,27.93
2024-03-07T06:35:37.499Z,27.64
2024-03-07T06:36:37.571Z,27.40
2024-03-07T06:37:37.650Z,27.31
2024-03-07T06:38:37.829Z,26.99
2024-03-07T06:39:38.170Z,27.04
2024-03-07T06:40:37.944Z,27.22
2024-03-07T06:41:38.087Z,27.24
2024-03-07T06:42:38.151Z,27.73
2024-03-07T06:43:38.271Z,28.02
2024-03-07T06:44:38.735Z,27.77
2024-03-07T06:46:00.963Z,27.93
2024-03-07T06:46:38.469Z,27.85
2024-03-07T06:47:38.798Z,27.59
2024-03-07T06:48:38.565Z,27.53
2024-03-07T06:49:38.745Z,28.17
2024-03-07T06:50:39.214Z,28.33
2024-03-07T06:51:38.494Z,27.94
2024-03-07T06:52:40.115Z,28.45
2024-03-07T06:53:38.531Z,28.43
2024-03-07T06:54:39.665Z,28.34
2024-03-07T06:55:38.528Z,28.27
2024-03-07T06:56:38.525Z,28.32
2024-03-07T06:57:38.478Z,28.25
2024-03-07T06:58:38.470Z,28.19
2024-03-07T06:59:38.525Z,28.20
2024-03-07T07:00:39.351Z,28.29
2024-03-07T07:01:38.514Z,28.05
2024-03-07T07:02:38.584Z,27.87
2024-03-07T07:03:38.509Z,28.24
2024-03-07T07:04:38.532Z,28.21
2024-03-07T07:05:38.791Z,28.31
2024-03-07T07:06:38.640Z,28.28
2024-03-07T07:07:38.710Z,28.38
2024-03-07T07:08:38.835Z,28.36
2024-03-07T07:09:38.882Z,28.39
2024-03-07T07:10:39.238Z,28.38
2024-03-07T07:11:39.206Z,28.35
2024-03-07T07:12:39.114Z,28.37
2024-03-07T07:13:39.203Z,28.45
2024-03-07T07:14:39.310Z,28.48
2024-03-07T07:15:39.722Z,28.55
2024-03-07T07:16:39.380Z,28.59
2024-03-07T07:17:39.570Z,28.61
2024-03-07T07:18:39.778Z,28.59
2024-03-07T07:19:39.613Z,28.59
2024-03-07T07:20:39.722Z,28.60
2024-03-07T07:21:39.796Z,28.65
2024-03-07T07:22:39.874Z,28.64
2024-03-07T07:23:40.008Z,28.66
2024-03-07T07:24:39.979Z,28.67
2024-03-07T07:25:40.097Z,28.67
2024-03-07T07:26:40.173Z,28.65
2024-03-07T07:27:40.224Z,28.65
2024-03-07T07:28:40.318Z,28.70
2024-03-07T07:29:40.414Z,28.43
2024-03-07T07:30:41.890Z,28.59
2024-03-07T07:31:40.449Z,28.56
2024-03-07T07:32:40.482Z,28.53
2024-03-07T07:33:40.536Z,28.57
2024-03-07T07:34:40.461Z,28.61
2024-03-07T07:35:40.745Z,28.75
2024-03-07T07:36:40.494Z,28.67
2024-03-07T07:37:40.473Z,28.78
2024-03-07T07:38:40.496Z,28.91
2024-03-07T07:39:40.467Z,29.41
2024-03-07T07:40:40.500Z,29.79
2024-03-07T07:41:40.510Z,30.05
2024-03-07T07:42:40.480Z,30.09
2024-03-07T07:44:40.512Z,30.21
2024-03-07T07:45:40.494Z,30.30
2024-03-07T07:46:40.499Z,30.32
2024-03-07T07:47:40.554Z,30.36
2024-03-07T07:48:40.609Z,30.63
2024-03-07T07:49:40.502Z,30.57
2024-03-07T07:50:40.767Z,30.74
2024-03-07T07:51:40.493Z,30.96
2024-03-07T07:52:40.508Z,31.19
2024-03-07T07:53:40.525Z,31.21
2024-03-07T07:54:40.508Z,31.31
2024-03-07T07:55:40.507Z,31.51
2024-03-07T07:56:40.535Z,31.57
2024-03-07T07:57:40.485Z,31.58
2024-03-07T07:58:40.526Z,31.71
2024-03-07T07:59:40.581Z,31.79
2024-03-07T08:00:40.532Z,31.65
2024-03-07T08:01:40.519Z,31.93
2024-03-07T08:02:40.567Z,32.03
2024-03-07T08:03:40.528Z,32.26
2024-03-07T08:04:40.514Z,32.36
2024-03-07T08:05:40.592Z,32.46
2024-03-07T08:06:40.512Z,32.65
2024-03-07T08:07:40.548Z,32.73
2024-03-07T08:08:40.584Z,32.77
2024-03-07T08:09:40.525Z,32.85
2024-03-07T08:10:42.347Z,32.97
2024-03-07T08:11:40.638Z,33.02
2024-03-07T08:12:40.566Z,33.13
2024-03-07T08:13:40.560Z,33.31
2024-03-07T08:14:40.606Z,33.60
2024-03-07T08:15:40.588Z,33.56
2024-03-07T08:16:40.601Z,33.61
2024-03-07T08:17:40.675Z,33.75
2024-03-07T08:18:40.657Z,33.93
2024-03-07T08:19:40.569Z,34.01
2024-03-07T08:20:41.727Z,34.10
2024-03-07T08:21:40.625Z,34.14
2024-03-07T08:22:40.631Z,34.47
2024-03-07T08:23:40.628Z,34.55
2024-03-07T08:24:40.609Z,34.59
2024-03-07T08:25:40.998Z,34.72
2024-03-07T08:26:40.650Z,34.71
2024-03-07T08:27:40.624Z,34.74
2024-03-07T08:28:40.597Z,34.92
2024-03-07T08:29:40.694Z,34.73
2024-03-07T08:30:40.644Z,35.10
2024-03-07T08:31:40.762Z,35.50
2024-03-07T08:32:40.672Z,35.58
2024-03-07T08:33:40.735Z,35.20
2024-03-07T08:34:41.244Z,34.91
2024-03-07T08:35:40.756Z,32.79
2024-03-07T08:36:41.255Z,31.94
2024-03-07T08:37:40.804Z,31.96
2024-03-07T08:38:40.873Z,30.49
2024-03-07T08:39:40.970Z,30.26
2024-03-07T08:40:41.083Z,31.50
2024-03-07T08:41:41.294Z,30.68
2024-03-07T08:42:41.257Z,30.48
2024-03-07T08:43:41.320Z,29.75
2024-03-07T08:44:41.473Z,28.77
2024-03-07T08:45:41.469Z,29.36
2024-03-07T08:46:41.583Z,29.23
2024-03-07T08:47:41.800Z,29.04
2024-03-07T08:48:41.907Z,29.78
2024-03-07T08:49:41.948Z,30.10
2024-03-07T08:50:42.031Z,29.42
2024-03-07T08:51:42.739Z,29.52
2024-03-07T08:52:42.152Z,30.51
2024-03-07T08:53:42.275Z,30.74
2024-03-07T08:54:42.344Z,30.98
2024-03-07T08:55:42.431Z,31.13
2024-03-07T08:56:42.599Z,30.62
2024-03-07T08:57:42.641Z,30.95
2024-03-07T08:58:42.729Z,29.98
2024-03-07T08:59:42.845Z,29.91
2024-03-07T09:00:42.942Z,30.87
2024-03-07T09:01:43.086Z,30.56
2024-03-07T09:02:43.194Z,30.39
2024-03-07T09:03:43.194Z,30.31
2024-03-07T09:04:43.307Z,30.41
2024-03-07T09:05:43.703Z,30.51
2024-03-07T09:06:43.496Z,30.59
2024-03-07T09:07:43.577Z,29.64
2024-03-07T09:08:43.710Z,29.95
2024-03-07T09:09:43.788Z,29.17
2024-03-07T09:10:44.119Z,28.90
2024-03-07T09:11:44.016Z,28.57
2024-03-07T09:12:44.047Z,28.52
2024-03-07T09:13:44.114Z,29.36
2024-03-07T09:14:47.176Z,29.70
2024-03-07T09:15:44.229Z,28.26
2024-03-07T09:16:44.215Z,28.40
2024-03-07T09:17:44.269Z,29.03
2024-03-07T09:18:44.304Z,28.79
2024-03-07T09:19:44.225Z,29.92
2024-03-07T09:20:44.263Z,29.52
2024-03-07T09:21:44.219Z,30.01
2024-03-07T09:22:44.238Z,29.90
2024-03-07T09:23:44.288Z,29.59
2024-03-07T09:24:44.275Z,29.78
2024-03-07T09:25:44.274Z,29.38
2024-03-07T09:26:44.396Z,29.77
2024-03-07T09:27:44.261Z,29.22
2024-03-07T09:28:44.221Z,29.68
2024-03-07T09:29:44.289Z,29.80
2024-03-07T09:30:44.279Z,29.71
2024-03-07T09:31:44.765Z,29.66
2024-03-07T09:32:44.766Z,29.26
2024-03-07T09:33:44.343Z,28.54
2024-03-07T09:34:44.368Z,27.43
2024-03-07T09:35:44.317Z,28.15
2024-03-07T09:36:44.826Z,27.42
2024-03-07T09:37:44.794Z,26.92
2024-03-07T09:38:44.342Z,27.55
2024-03-07T09:39:44.348Z,27.11
2024-03-07T09:40:44.332Z,26.86
2024-03-07T09:41:44.812Z,26.30
2024-03-07T09:42:44.306Z,25.48
2024-03-07T09:43:44.270Z,26.00
2024-03-07T09:44:44.322Z,26.03
2024-03-07T09:45:46.697Z,25.60
2024-03-07T09:46:44.760Z,25.13
2024-03-07T09:47:44.380Z,25.50
2024-03-07T09:48:44.353Z,26.64
2024-03-07T09:49:44.281Z,27.00
2024-03-07T09:50:44.365Z,24.94
2024-03-07T09:51:44.806Z,25.61
2024-03-07T09:52:44.298Z,26.78
2024-03-07T09:53:44.307Z,27.41
2024-03-07T09:54:44.329Z,27.66
2024-03-07T09:55:44.331Z,27.94
2024-03-07T09:56:44.840Z,26.14
2024-03-07T09:57:44.346Z,26.91
2024-03-07T09:58:44.342Z,26.66
2024-03-07T09:59:44.371Z,25.14
2024-03-07T10:00:44.302Z,24.61
2024-03-07T10:01:44.753Z,25.34
2024-03-07T10:02:45.330Z,25.17
2024-03-07T10:03:44.398Z,25.44
2024-03-07T10:04:44.301Z,24.93
2024-03-07T10:05:44.422Z,24.81
2024-03-07T10:06:44.802Z,25.77
2024-03-07T10:07:44.558Z,25.24
2024-03-07T10:08:44.705Z,25.34
2024-03-07T10:09:44.772Z,25.45
2024-03-07T10:10:44.931Z,26.07
2024-03-07T10:11:47.190Z,26.23
2024-03-07T10:12:44.995Z,27.04
2024-03-07T10:13:45.052Z,26.09
2024-03-07T10:14:45.112Z,26.60
2024-03-07T10:15:45.129Z,26.58
2024-03-07T10:16:45.303Z,26.82
2024-03-07T10:17:47.202Z,27.11
2024-03-07T10:18:45.516Z,26.08
2024-03-07T10:19:45.429Z,26.30
2024-03-07T10:20:45.595Z,25.57
2024-03-07T10:21:45.541Z,25.54
2024-03-07T10:22:45.581Z,25.20
2024-03-07T10:23:45.682Z,24.89
2024-03-07T10:24:45.686Z,25.03
2024-03-07T10:25:45.686Z,24.88
2024-03-07T10:26:45.869Z,24.92
2024-03-07T10:27:45.791Z,25.26
2024-03-07T10:28:45.822Z,25.83
2024-03-07T10:29:45.893Z,26.62
2024-03-07T10:30:45.972Z,26.63
2024-03-07T10:31:53.533Z,26.66
2024-03-07T10:32:47.081Z,26.75
2024-03-07T10:33:46.148Z,24.82
2024-03-07T10:34:46.038Z,25.23
2024-03-07T10:35:46.067Z,26.33
2024-03-07T10:36:46.080Z,26.73
2024-03-07T10:37:46.037Z,26.15
2024-03-07T10:38:46.075Z,25.61
2024-03-07T10:39:46.038Z,25.14
2024-03-07T10:40:46.073Z,25.73
2024-03-07T10:41:46.370Z,25.64
2024-03-07T10:42:46.029Z,25.80
2024-03-07T10:43:46.082Z,26.23
2024-03-07T10:44:46.134Z,27.23
2024-03-07T10:45:46.061Z,26.47
2024-03-07T10:46:46.353Z,27.00
2024-03-07T10:47:46.169Z,27.20
2024-03-07T10:48:46.159Z,26.23
2024-03-07T10:49:46.149Z,25.37
2024-03-07T10:50:46.260Z,25.54
2024-03-07T10:51:46.221Z,24.77
2024-03-07T10:52:46.260Z,24.39
2024-03-07T10:53:46.337Z,24.42
2024-03-07T10:54:49.052Z,24.12
2024-03-07T10:55:46.367Z,24.50
2024-03-07T10:56:46.388Z,24.30
2024-03-07T10:57:47.321Z,24.63
2024-03-07T10:58:46.339Z,24.62
2024-03-07T10:59:46.493Z,24.76
2024-03-07T11:00:46.408Z,25.57
2024-03-07T11:01:46.829Z,24.77
2024-03-07T11:02:46.376Z,24.75
2024-03-07T11:03:46.374Z,24.58
2024-03-07T11:04:46.390Z,25.25
2024-03-07T11:05:46.384Z,25.44
2024-03-07T11:06:46.400Z,26.43
2024-03-07T11:07:46.400Z,26.32
2024-03-07T11:08:46.460Z,25.81
2024-03-07T11:09:46.413Z,26.48
2024-03-07T11:10:46.441Z,26.58
2024-03-07T11:11:46.908Z,26.92
2024-03-07T11:12:46.395Z,27.15
2024-03-07T11:13:46.441Z,27.08
2024-03-07T11:14:46.421Z,27.12
2024-03-07T11:15:46.423Z,27.13
2024-03-07T11:16:46.829Z,27.32
2024-03-07T11:17:46.431Z,27.33
2024-03-07T11:18:46.408Z,27.41
2024-03-07T11:19:46.447Z,27.44
2024-03-07T11:20:46.474Z,27.48
2024-03-07T11:21:46.454Z,27.56
2024-03-07T11:22:46.537Z,27.69
2024-03-07T11:23:46.471Z,27.76
2024-03-07T11:24:46.726Z,27.83
2024-03-07T11:25:46.547Z,27.88
2024-03-07T11:26:46.759Z,27.94
2024-03-07T11:27:46.707Z,28.00
2024-03-07T11:28:46.759Z,28.01
2024-03-07T11:29:46.838Z,28.13
2024-03-07T11:30:46.887Z,28.18
2024-03-07T11:31:47.363Z,28.18
2024-03-07T11:32:48.129Z,28.29
2024-03-07T11:33:47.287Z,28.23
2024-03-07T11:34:47.186Z,28.29
2024-03-07T11:35:47.261Z,28.50
2024-03-07T11:36:47.333Z,28.15
2024-03-07T11:37:47.826Z,27.97
2024-03-07T11:38:47.488Z,28.40
2024-03-07T11:39:47.573Z,28.54
2024-03-07T11:40:47.631Z,28.55
2024-03-07T11:41:47.859Z,28.62
2024-03-07T11:42:47.766Z,28.63
2024-03-07T11:43:47.935Z,28.63
2024-03-07T11:44:47.959Z,28.76
2024-03-07T11:45:48.610Z,28.88
2024-03-07T11:46:48.359Z,28.98
2024-03-07T11:47:48.236Z,28.96
2024-03-07T11:48:48.267Z,29.03
2024-03-07T11:49:48.337Z,29.03
2024-03-07T11:50:48.462Z,29.03
2024-03-07T11:51:48.843Z,29.08
2024-03-07T11:52:48.503Z,29.13
2024-03-07T11:53:48.611Z,29.10
2024-03-07T11:54:48.639Z,29.17
2024-03-07T11:55:48.690Z,29.13
2024-03-07T11:56:48.924Z,29.18
2024-03-07T11:57:48.877Z,29.22
2024-03-07T11:58:48.956Z,29.34
2024-03-07T11:59:49.015Z,29.41
2024-03-07T12:00:49.108Z,29.45
2024-03-07T12:01:49.452Z,29.43
2024-03-07T12:02:49.246Z,29.42
2024-03-07T12:03:49.308Z,29.47
2024-03-07T12:04:49.398Z,29.53
2024-03-07T12:05:49.446Z,29.51
2024-03-07T12:06:49.488Z,29.58
2024-03-07T12:07:49.839Z,29.61
2024-03-07T12:08:49.672Z,29.56
2024-03-07T12:09:49.694Z,29.54
2024-03-07T12:10:50.053Z,29.58
2024-03-07T12:11:49.892Z,29.58
2024-03-07T12:12:49.927Z,29.53
2024-03-07T12:13:49.993Z,29.53
2024-03-07T12:14:50.059Z,29.58
2024-03-07T12:15:50.094Z,29.58
2024-03-07T12:16:50.153Z,29.59
2024-03-07T12:17:50.530Z,29.43
2024-03-07T12:18:50.410Z,29.47
2024-03-07T12:19:50.329Z,29.48
2024-03-07T12:20:50.476Z,29.51
2024-03-07T12:21:50.551Z,29.47
2024-03-07T12:22:50.876Z,29.47
2024-03-07T12:23:50.689Z,29.53
2024-03-07T12:24:50.753Z,29.41
2024-03-07T12:25:50.837Z,29.40
2024-03-07T12:26:50.939Z,29.47
2024-03-07T12:27:51.365Z,29.44
2024-03-07T12:28:51.060Z,29.43
2024-03-07T12:29:51.188Z,29.38
2024-03-07T12:30:51.436Z,28.75
2024-03-07T12:31:51.296Z,29.12
2024-03-07T12:32:51.491Z,29.11
2024-03-07T12:33:51.462Z,29.10
2024-03-07T12:34:51.469Z,29.06
2024-03-07T12:35:51.595Z,29.06
2024-03-07T12:36:51.584Z,29.08
2024-03-07T12:37:51.653Z,29.09
2024-03-07T12:38:51.767Z,29.15
2024-03-07T12:39:51.792Z,29.18
2024-03-07T12:40:51.891Z,29.16
2024-03-07T12:41:52.053Z,29.16
2024-03-07T12:42:52.032Z,29.17
2024-03-07T12:43:52.073Z,29.13
2024-03-07T12:44:52.249Z,29.12
2024-03-07T12:45:52.214Z,29.11
2024-03-07T12:46:52.320Z,29.11
2024-03-07T12:47:52.446Z,29.08
2024-03-07T12:48:52.591Z,29.11
2024-03-07T12:49:52.488Z,29.11
2024-03-07T12:50:52.569Z,29.10
2024-03-07T12:51:52.647Z,29.13
2024-03-07T12:52:52.733Z,29.15
2024-03-07T12:53:52.842Z,29.12
2024-03-07T12:54:52.952Z,29.15
2024-03-07T12:55:52.932Z,29.13